createdAt,value
2022-08-31T00:00:30.525Z,5.60
2022-08-31T00:03:16.421Z,6.80
2022-08-31T00:05:43.474Z,3.60
2022-08-31T00:08:10.427Z,6.90
2022-08-31T00:10:41.110Z,8.30
2022-08-31T00:13:10.271Z,8.30
2022-08-31T00:15:37.328Z,7.00
2022-08-31T00:18:04.634Z,8.90
2022-08-31T00:20:33.784Z,9.40
2022-08-31T00:23:04.612Z,9.30
2022-08-31T00:25:32.324Z,5.80
2022-08-31T00:27:59.318Z,9.50
2022-08-31T00:30:26.587Z,9.10
2022-08-31T00:32:53.703Z,9.30
2022-08-31T00:35:24.268Z,9.20
2022-08-31T00:37:51.260Z,9.90
2022-08-31T00:40:18.384Z,9.60
2022-08-31T00:42:45.424Z,10.40
2022-08-31T00:45:12.556Z,10.40
2022-08-31T00:47:39.485Z,9.30
2022-08-31T00:50:07.698Z,9.90
2022-08-31T00:52:37.773Z,10.60
2022-08-31T00:55:08.846Z,9.20
2022-08-31T00:57:37.997Z,9.00
2022-08-31T01:00:08.023Z,8.80
2022-08-31T01:02:35.150Z,9.60
2022-08-31T01:05:02.426Z,9.40
2022-08-31T01:07:29.560Z,10.30
2022-08-31T01:09:56.779Z,9.10
2022-08-31T01:12:24.317Z,8.80
2022-08-31T01:14:51.903Z,8.90
2022-08-31T01:17:20.469Z,9.30
2022-08-31T01:19:57.801Z,10.20
2022-08-31T01:22:24.798Z,8.60
2022-08-31T01:24:52.452Z,9.70
2022-08-31T01:27:21.729Z,9.10
2022-08-31T01:29:48.646Z,9.20
2022-08-31T01:32:15.664Z,9.40
2022-08-31T01:34:42.747Z,9.70
2022-08-31T01:37:10.047Z,9.60
2022-08-31T01:39:37.084Z,9.10
2022-08-31T01:42:04.227Z,9.30
2022-08-31T01:44:31.206Z,9.70
2022-08-31T01:46:58.354Z,9.30
2022-08-31T01:49:27.097Z,9.40
2022-08-31T01:51:54.121Z,9.00
2022-08-31T01:54:22.373Z,8.00
2022-08-31T01:56:49.458Z,9.10
2022-08-31T01:59:23.742Z,9.40
2022-08-31T02:02:01.029Z,8.60
2022-08-31T02:04:29.128Z,9.20
2022-08-31T02:06:57.683Z,8.70
2022-08-31T02:09:25.279Z,9.50
2022-08-31T02:11:52.607Z,9.00
2022-08-31T02:14:20.349Z,9.00
2022-08-31T02:16:49.080Z,9.10
2022-08-31T02:19:16.755Z,8.70
2022-08-31T02:21:43.705Z,8.50
2022-08-31T02:24:12.383Z,9.60
2022-08-31T02:26:39.378Z,9.40
2022-08-31T02:29:07.405Z,9.00
2022-08-31T02:31:34.661Z,9.90
2022-08-31T02:34:01.786Z,7.90
2022-08-31T02:36:29.165Z,9.40
2022-08-31T02:38:57.114Z,8.80
2022-08-31T02:41:24.471Z,9.00
2022-08-31T02:43:51.478Z,8.70
2022-08-31T02:46:19.866Z,9.00
2022-08-31T02:48:56.813Z,10.20
2022-08-31T02:51:23.786Z,8.80
2022-08-31T02:53:51.353Z,9.70
2022-08-31T02:56:18.481Z,8.50
2022-08-31T02:58:45.468Z,8.60
2022-08-31T03:01:12.924Z,10.20
2022-08-31T03:06:08.563Z,10.00
2022-08-31T03:08:35.945Z,10.30
2022-08-31T03:11:03.055Z,10.90
2022-08-31T03:15:58.061Z,10.80
2022-08-31T03:18:25.415Z,8.60
2022-08-31T03:23:20.843Z,8.20
2022-08-31T03:30:55.709Z,11.10
2022-08-31T03:33:22.912Z,11.60
2022-08-31T03:38:18.587Z,8.10
2022-08-31T03:40:46.853Z,11.50
2022-08-31T03:50:41.738Z,9.20
2022-08-31T03:53:15.052Z,10.00
2022-08-31T04:08:47.517Z,8.70
2022-08-31T04:17:17.780Z,10.80
2022-08-31T04:22:26.611Z,10.70
2022-08-31T04:35:15.888Z,8.60
2022-08-31T04:37:46.885Z,6.60
2022-08-31T04:40:26.201Z,6.90
2022-08-31T04:42:54.312Z,7.10
2022-08-31T04:45:24.704Z,7.60
2022-08-31T04:47:52.886Z,6.90
2022-08-31T04:50:20.470Z,7.70
2022-08-31T04:53:17.307Z,8.60
2022-08-31T04:55:44.841Z,9.10
2022-08-31T04:58:15.973Z,8.80
2022-08-31T05:03:23.091Z,9.20
2022-08-31T05:10:49.142Z,6.00
2022-08-31T05:13:16.171Z,7.70
2022-08-31T05:15:43.893Z,7.80
2022-08-31T05:18:14.624Z,7.20
2022-08-31T05:20:48.393Z,7.20
2022-08-31T05:23:15.404Z,6.90
2022-08-31T05:25:45.030Z,6.60
2022-08-31T05:28:12.761Z,6.90
2022-08-31T05:30:43.415Z,7.40
2022-08-31T05:33:18.166Z,7.50
2022-08-31T05:48:05.142Z,5.10
2022-08-31T05:50:35.956Z,2.70
2022-08-31T05:53:03.681Z,2.40
2022-08-31T05:55:31.403Z,2.50
2022-08-31T05:57:58.327Z,2.20
2022-08-31T06:00:25.532Z,1.20
2022-08-31T06:03:02.672Z,1.70
2022-08-31T06:05:29.985Z,1.00
2022-08-31T06:07:58.523Z,1.00
2022-08-31T06:10:27.285Z,1.80
2022-08-31T06:12:54.224Z,1.80
2022-08-31T06:15:21.245Z,1.60
2022-08-31T06:17:48.254Z,1.40
2022-08-31T06:20:17.995Z,2.20
2022-08-31T06:22:46.740Z,1.00
2022-08-31T06:25:19.837Z,2.60
2022-08-31T06:27:50.390Z,1.90
2022-08-31T06:30:19.424Z,1.80
2022-08-31T06:32:46.971Z,2.00
2022-08-31T06:35:15.252Z,1.00
2022-08-31T06:38:14.388Z,1.00
2022-08-31T06:40:49.406Z,1.00
2022-08-31T06:46:31.672Z,1.20
2022-08-31T06:49:08.626Z,1.00
2022-08-31T06:51:38.026Z,1.00
2022-08-31T06:54:27.531Z,1.00
2022-08-31T06:59:59.306Z,1.30
2022-08-31T07:02:44.455Z,1.00
2022-08-31T07:05:19.996Z,1.00
2022-08-31T07:07:52.389Z,2.30
2022-08-31T07:10:19.535Z,1.00
2022-08-31T07:12:46.540Z,1.00
2022-08-31T07:15:13.833Z,1.90
2022-08-31T07:17:41.022Z,2.00
2022-08-31T07:20:09.771Z,1.00
2022-08-31T07:22:36.806Z,2.80
2022-08-31T07:25:22.167Z,2.10
2022-08-31T07:27:55.551Z,1.30
2022-08-31T07:30:22.949Z,2.00
2022-08-31T07:32:50.422Z,2.50
2022-08-31T07:35:23.468Z,1.90
2022-08-31T07:38:41.387Z,1.00
2022-08-31T07:41:27.907Z,1.60
2022-08-31T07:43:57.201Z,1.00
2022-08-31T07:46:31.916Z,2.50
2022-08-31T07:49:00.684Z,1.90
2022-08-31T07:54:28.125Z,1.00
2022-08-31T07:57:04.413Z,1.00
2022-08-31T07:59:33.341Z,1.00
2022-08-31T08:02:04.065Z,1.00
2022-08-31T08:04:31.390Z,1.00
2022-08-31T08:07:18.436Z,1.00
2022-08-31T08:09:55.658Z,1.20
2022-08-31T08:13:04.940Z,1.40
2022-08-31T08:15:52.086Z,1.60
2022-08-31T08:21:20.145Z,2.50
2022-08-31T08:23:47.910Z,2.00
2022-08-31T08:26:54.302Z,1.70
2022-08-31T08:29:48.526Z,1.80
2022-08-31T08:32:21.586Z,2.10
2022-08-31T08:34:48.578Z,1.50
2022-08-31T08:37:15.594Z,2.20
2022-08-31T08:39:43.073Z,2.50
2022-08-31T08:42:19.279Z,1.90
2022-08-31T08:44:46.386Z,3.60
2022-08-31T08:47:18.996Z,3.50
2022-08-31T08:49:57.063Z,4.30
2022-08-31T08:52:28.533Z,7.80
2022-08-31T08:59:53.652Z,5.40
2022-08-31T09:02:23.219Z,1.10
2022-08-31T09:05:10.971Z,1.00
2022-08-31T09:08:00.388Z,1.00
2022-08-31T09:10:45.635Z,1.00
2022-08-31T09:13:18.681Z,1.30
2022-08-31T09:15:54.047Z,1.00
2022-08-31T09:18:30.600Z,1.00
2022-08-31T09:21:05.545Z,2.10
2022-08-31T09:23:34.977Z,1.70
2022-08-31T09:26:08.187Z,1.00
2022-08-31T09:29:19.721Z,1.90
2022-08-31T09:31:47.330Z,1.10
2022-08-31T09:34:36.430Z,1.00
2022-08-31T09:37:11.930Z,1.00
2022-08-31T09:39:38.936Z,1.00
2022-08-31T09:42:14.531Z,2.00
2022-08-31T09:44:42.014Z,1.70
2022-08-31T09:47:27.831Z,2.00
2022-08-31T09:49:55.877Z,1.00
2022-08-31T09:52:44.952Z,3.60
2022-08-31T09:55:17.557Z,2.70
2022-08-31T09:58:07.873Z,1.50
2022-08-31T10:03:22.108Z,1.30
2022-08-31T10:05:51.428Z,1.00
2022-08-31T10:08:37.464Z,1.20
2022-08-31T10:11:11.383Z,1.60
2022-08-31T10:13:40.144Z,1.00
2022-08-31T10:16:14.488Z,1.30
2022-08-31T10:18:50.988Z,2.00
2022-08-31T10:23:54.227Z,1.00
2022-08-31T10:26:31.699Z,1.00
2022-08-31T10:29:01.102Z,1.00
2022-08-31T10:31:30.169Z,2.30
2022-08-31T10:34:19.429Z,2.20
2022-08-31T10:36:47.659Z,1.60
2022-08-31T10:39:32.494Z,2.80
2022-08-31T10:42:05.282Z,4.00
2022-08-31T10:44:40.516Z,4.50
2022-08-31T10:47:22.795Z,2.10
2022-08-31T10:50:00.854Z,4.80
2022-08-31T10:52:42.976Z,4.90
2022-08-31T10:55:32.257Z,6.00
2022-08-31T10:58:17.627Z,1.80
2022-08-31T11:00:51.050Z,2.50
2022-08-31T11:03:30.336Z,6.80
2022-08-31T11:06:16.036Z,2.50
2022-08-31T11:11:27.212Z,6.90
2022-08-31T11:14:14.702Z,3.50
2022-08-31T11:17:00.450Z,1.70
2022-08-31T11:19:30.148Z,1.10
2022-08-31T11:21:59.870Z,7.40
2022-08-31T11:24:37.811Z,4.40
2022-08-31T11:27:23.425Z,4.80
2022-08-31T11:29:59.135Z,3.90
2022-08-31T11:32:29.805Z,9.40
2022-08-31T11:34:58.479Z,9.40
2022-08-31T11:37:44.336Z,7.00
2022-08-31T11:40:11.375Z,3.20
2022-08-31T11:42:38.313Z,8.10
2022-08-31T11:45:27.167Z,7.20
2022-08-31T11:47:55.039Z,3.00
2022-08-31T11:50:22.085Z,8.40
2022-08-31T11:52:53.791Z,7.80
2022-08-31T11:55:23.290Z,2.20
2022-08-31T11:58:10.134Z,6.10
2022-08-31T12:00:52.399Z,4.00
2022-08-31T12:03:38.323Z,8.50
2022-08-31T12:06:07.824Z,4.40
2022-08-31T12:08:46.823Z,10.20
2022-08-31T12:11:22.084Z,14.10
2022-08-31T12:13:59.911Z,8.90
2022-08-31T12:16:37.822Z,8.60
2022-08-31T12:19:43.365Z,7.90
2022-08-31T12:22:42.138Z,12.40
2022-08-31T12:25:09.281Z,5.40
2022-08-31T12:27:43.712Z,8.10
2022-08-31T12:30:19.292Z,8.80
2022-08-31T12:35:21.252Z,4.00
2022-08-31T12:38:04.922Z,1.00
2022-08-31T12:40:41.373Z,1.00
2022-08-31T12:43:14.544Z,4.50
2022-08-31T12:45:56.919Z,1.30
2022-08-31T12:48:26.924Z,2.50
2022-08-31T12:50:53.799Z,3.80
2022-08-31T12:53:29.994Z,8.20
2022-08-31T12:56:05.252Z,5.50
2022-08-31T12:58:35.542Z,7.00
2022-08-31T13:01:11.291Z,11.60
2022-08-31T13:03:39.784Z,7.90
2022-08-31T13:06:08.259Z,10.10
2022-08-31T13:08:38.823Z,11.00
2022-08-31T13:11:12.963Z,10.90
2022-08-31T13:13:39.972Z,6.90
2022-08-31T13:16:08.083Z,10.20
2022-08-31T13:18:35.264Z,12.30
2022-08-31T13:21:05.650Z,14.00
2022-08-31T13:23:34.950Z,13.60
2022-08-31T13:26:09.993Z,12.30
2022-08-31T13:28:36.963Z,11.10
2022-08-31T13:31:05.923Z,19.80
2022-08-31T13:33:42.461Z,18.40
2022-08-31T13:36:09.807Z,10.10
2022-08-31T13:38:42.585Z,14.50
2022-08-31T13:41:22.481Z,24.30
2022-08-31T13:43:53.883Z,20.80
2022-08-31T13:46:37.601Z,25.40
2022-08-31T13:49:20.798Z,21.00
2022-08-31T13:51:47.973Z,32.70
2022-08-31T13:54:24.539Z,35.60
2022-08-31T13:56:59.061Z,42.30
2022-08-31T13:59:31.021Z,44.60
2022-08-31T14:02:00.892Z,99.90
2022-08-31T15:41:01.834Z,99.90
2022-08-31T15:43:28.971Z,99.90
2022-08-31T17:13:43.556Z,99.90
2022-08-31T17:16:11.114Z,99.90
2022-08-31T17:18:41.045Z,99.90
2022-08-31T17:21:14.946Z,99.90
2022-08-31T17:23:41.879Z,99.90
2022-08-31T17:26:08.922Z,99.90
2022-08-31T17:28:37.580Z,99.90
2022-08-31T17:31:05.454Z,99.90
2022-08-31T17:33:32.477Z,99.90
2022-08-31T17:36:00.197Z,99.90
2022-08-31T17:38:28.469Z,99.90
2022-08-31T17:41:03.591Z,99.90
2022-08-31T17:43:35.699Z,99.90
2022-08-31T17:46:04.108Z,99.90
2022-08-31T17:48:31.065Z,99.90
2022-08-31T17:50:59.352Z,99.90
2022-08-31T17:53:26.814Z,99.90
2022-08-31T17:55:56.910Z,99.90
2022-08-31T17:58:23.880Z,99.90
2022-08-31T18:00:52.337Z,99.90
2022-08-31T18:03:19.271Z,99.90
2022-08-31T18:05:46.749Z,99.90
2022-08-31T18:08:14.312Z,99.90
2022-08-31T18:10:41.353Z,99.90
2022-08-31T18:13:08.318Z,99.90
2022-08-31T18:15:35.302Z,99.90
2022-08-31T18:18:02.304Z,99.90
2022-08-31T18:20:29.357Z,99.90
2022-08-31T18:22:56.229Z,99.90
2022-08-31T18:25:23.108Z,99.90
2022-08-31T18:27:50.170Z,99.90
2022-08-31T18:30:18.188Z,99.90
2022-08-31T18:32:47.426Z,99.90
2022-08-31T18:35:16.512Z,99.90
2022-08-31T18:37:44.720Z,99.90
2022-08-31T18:40:30.557Z,99.90
2022-08-31T18:43:16.477Z,99.90
2022-08-31T18:45:47.452Z,99.90
2022-08-31T18:48:25.770Z,99.90
2022-08-31T18:50:53.737Z,99.90
2022-08-31T18:55:57.905Z,99.90
2022-08-31T18:58:24.828Z,99.90
2022-08-31T19:00:57.292Z,98.80
2022-08-31T19:03:25.713Z,97.70
2022-08-31T19:05:52.606Z,97.90
2022-08-31T19:10:49.194Z,97.60
2022-08-31T19:13:16.253Z,97.50
2022-08-31T19:15:43.736Z,96.20
2022-08-31T19:18:10.674Z,96.40
2022-08-31T22:02:41.111Z,89.30
2022-08-31T23:49:05.571Z,84.20
